Time;durP1;ratioP1;P1;durP2;ratioP2;P2;SDS_P1;SDS_P2;PMS_P1;PMS_P2;Temp;Humidity;BMP_temperature;BMP_pressure;BME280_temperature;BME280_humidity;BME280_pressure;Samples;Min_cycle;Max_cycle;Signal;HPM_P1;HPM_P2
2021/08/14 00:00:18;;;;;;;14.55;4.45;;;;;;;22.36;58.94;101132.75;4995099;28;20034;-67
2021/08/14 00:02:44;;;;;;;7.60;4.40;;;;;;;22.28;59.45;101132.75;4994810;28;20026;-66
2021/08/14 00:05:10;;;;;;;12.50;4.60;;;;;;;22.21;59.83;101127.50;4995471;28;20072;-68
2021/08/14 00:07:35;;;;;;;8.75;4.63;;;;;;;21.86;60.39;101094.19;4995488;28;20484;-67
2021/08/14 00:10:05;;;;;;;12.77;5.07;;;;;;;22.09;60.38;101137.16;4995013;28;20022;-68
2021/08/14 00:12:31;;;;;;;12.00;4.85;;;;;;;22.08;60.33;101131.88;4995131;28;20139;-67
2021/08/14 00:14:57;;;;;;;10.90;4.88;;;;;;;21.91;59.90;101093.31;4995046;28;20058;-67
2021/08/14 00:17:22;;;;;;;7.10;4.43;;;;;;;22.24;59.42;101132.75;4994652;28;20034;-67
2021/08/14 00:19:47;;;;;;;10.35;4.45;;;;;;;22.09;59.59;101134.53;4994904;28;20032;-67
2021/08/14 00:22:13;;;;;;;7.13;4.28;;;;;;;21.91;60.37;101126.63;4995141;28;20034;-67
2021/08/14 00:24:38;;;;;;;8.95;3.80;;;;;;;21.90;60.34;101133.63;4994482;28;20509;-67
2021/08/14 00:27:04;;;;;;;10.30;4.53;;;;;;;21.83;60.34;101138.88;4994767;28;20029;-66
2021/08/14 00:29:30;;;;;;;7.70;4.10;;;;;;;21.75;60.75;101142.38;4994574;28;20081;-68
2021/08/14 00:31:55;;;;;;;6.93;4.07;;;;;;;21.78;60.58;101141.50;4994611;28;20026;-67
2021/08/14 00:34:20;;;;;;;9.20;4.00;;;;;;;21.38;61.35;101129.13;4994757;28;20489;-67
2021/08/14 00:36:46;;;;;;;8.25;4.60;;;;;;;21.57;61.19;101151.13;4994804;28;20022;-67
2021/08/14 00:39:11;;;;;;;8.93;3.75;;;;;;;21.37;61.80;101135.28;4994651;28;20054;-67
2021/08/14 00:41:37;;;;;;;6.07;4.20;;;;;;;21.08;62.95;101137.78;4994538;28;20029;-66
2021/08/14 00:44:03;;;;;;;7.10;3.95;;;;;;;21.20;62.33;101152.69;4994294;28;20034;-70
2021/08/14 00:46:30;;;;;;;7.03;4.10;;;;;;;21.29;61.27;101119.47;4994049;28;20030;-68
2021/08/14 00:48:57;;;;;;;10.52;4.50;;;;;;;21.58;61.24;101157.22;4994551;28;20034;-67
2021/08/14 00:51:22;;;;;;;10.82;4.32;;;;;;;21.44;60.73;101110.75;4994270;28;20023;-67
2021/08/14 00:53:48;;;;;;;5.00;3.55;;;;;;;21.54;60.97;101155.44;4994028;28;20030;-68
2021/08/14 00:56:13;;;;;;;9.07;4.20;;;;;;;21.42;61.10;101120.41;4994417;28;20109;-67
2021/08/14 00:58:39;;;;;;;7.97;4.22;;;;;;;21.59;60.80;101145.84;4994044;28;20027;-68
2021/08/14 01:01:04;;;;;;;6.80;4.07;;;;;;;21.67;60.52;101135.34;4993952;28;20405;-66
2021/08/14 01:03:31;;;;;;;8.90;4.90;;;;;;;21.77;60.13;101137.09;4975866;28;20035;-67
2021/08/14 01:05:58;;;;;;;6.20;3.63;;;;;;;21.68;60.63;101151.13;4993254;28;20121;-67
2021/08/14 01:08:24;;;;;;;9.23;4.03;;;;;;;21.77;60.71;101145.00;4993975;28;20022;-67
2021/08/14 01:10:49;;;;;;;7.95;4.35;;;;;;;21.62;61.43;101146.75;4993850;28;20651;-67
2021/08/14 01:13:15;;;;;;;7.72;4.18;;;;;;;21.47;61.84;101139.66;4993866;28;20035;-67
2021/08/14 01:15:50;;;;;;;6.05;3.90;;;;;;;21.41;62.08;101150.16;4993668;28;20034;-67
2021/08/14 01:18:17;;;;;;;6.55;4.10;;;;;;;21.47;62.38;101149.28;4993720;28;20023;-67
2021/08/14 01:20:44;;;;;;;6.22;3.88;;;;;;;21.34;61.95;101117.72;4993857;28;20034;-67
2021/08/14 01:23:11;;;;;;;7.45;4.22;;;;;;;21.69;61.06;101137.09;4993663;28;20542;-67
2021/08/14 01:25:36;;;;;;;8.93;4.18;;;;;;;21.54;61.24;101127.41;4993444;28;20055;-67
2021/08/14 01:28:02;;;;;;;7.85;4.10;;;;;;;21.63;61.66;101143.25;4993426;28;20500;-67
2021/08/14 01:30:28;;;;;;;8.10;4.05;;;;;;;21.80;61.23;101130.09;4993324;28;20472;-67
2021/08/14 01:32:54;;;;;;;5.30;3.80;;;;;;;21.63;62.15;101139.72;4993705;28;20026;-68
2021/08/14 01:35:19;;;;;;;10.43;4.30;;;;;;;21.59;61.75;101143.22;4993836;28;20058;-67
2021/08/14 01:37:45;;;;;;;9.93;4.50;;;;;;;21.54;61.68;101121.28;4959402;28;20038;-68
2021/08/14 01:40:11;;;;;;;7.18;4.43;;;;;;;21.57;61.90;101139.72;4993649;28;20406;-66
2021/08/14 01:42:36;;;;;;;8.65;4.20;;;;;;;21.53;61.19;101137.94;4993279;28;20038;-67
2021/08/14 01:45:02;;;;;;;8.00;4.55;;;;;;;21.34;61.77;101138.72;4992830;28;20110;-67
2021/08/14 01:47:27;;;;;;;8.88;4.43;;;;;;;21.38;61.86;101137.00;4993092;28;20033;-72
2021/08/14 01:49:53;;;;;;;7.05;4.40;;;;;;;21.46;61.53;101147.56;4993017;28;20543;-68
2021/08/14 01:52:19;;;;;;;6.57;4.25;;;;;;;21.44;61.81;101138.78;4993473;28;20046;-67
2021/08/14 01:54:46;;;;;;;9.48;4.40;;;;;;;21.40;62.07;101140.50;4993000;28;20053;-67
2021/08/14 01:57:13;;;;;;;8.70;3.92;;;;;;;21.34;62.38;101135.25;4992883;28;20031;-67
2021/08/14 01:59:39;;;;;;;5.95;4.25;;;;;;;21.24;62.21;101115.09;4993244;28;20030;-67
2021/08/14 02:02:05;;;;;;;5.57;3.83;;;;;;;21.47;61.87;101144.91;4992933;28;20035;-68
2021/08/14 02:04:31;;;;;;;8.30;4.00;;;;;;;21.47;61.46;101138.78;4992914;28;20392;-68
2021/08/14 02:06:58;;;;;;;9.85;4.82;;;;;;;21.64;61.29;101144.09;4993009;28;20035;-68
2021/08/14 02:09:23;;;;;;;8.00;4.28;;;;;;;21.56;61.09;101140.56;4992760;28;20041;-68
2021/08/14 02:11:49;;;;;;;8.68;4.38;;;;;;;21.48;61.67;101136.19;4992618;28;20404;-67
2021/08/14 02:14:15;;;;;;;8.68;4.95;;;;;;;21.55;61.29;101129.16;4992867;28;20453;-67
2021/08/14 02:16:41;;;;;;;7.60;4.10;;;;;;;21.59;61.25;101130.09;4992681;28;20037;-67
2021/08/14 02:19:06;;;;;;;7.30;4.10;;;;;;;21.45;61.85;101130.91;4992532;28;20035;-67
2021/08/14 02:21:32;;;;;;;7.57;4.13;;;;;;;21.55;61.36;101129.16;4992913;28;20076;-68
2021/08/14 02:23:58;;;;;;;10.82;4.35;;;;;;;21.55;61.60;101133.56;4992847;28;20061;-68
2021/08/14 02:26:24;;;;;;;12.30;4.28;;;;;;;21.46;61.46;101092.38;4992477;28;20031;-68
2021/08/14 02:28:50;;;;;;;10.18;4.55;;;;;;;21.80;61.15;101122.22;4992560;28;20022;-68
2021/08/14 02:31:16;;;;;;;9.27;4.28;;;;;;;21.88;61.46;101116.09;4992969;28;20041;-67
2021/08/14 02:33:41;;;;;;;9.30;4.53;;;;;;;21.43;62.82;101119.53;4992780;28;20030;-68
2021/08/14 02:36:08;;;;;;;13.80;4.55;;;;;;;21.45;62.72;101106.38;4992241;28;20027;-67
2021/08/14 02:38:35;;;;;;;11.60;4.55;;;;;;;21.54;62.87;101103.75;4992720;28;20100;-67
2021/08/14 02:41:05;;;;;;;16.38;5.07;;;;;;;21.49;63.24;101101.13;4992441;28;20026;-68
2021/08/14 02:43:31;;;;;;;7.35;4.35;;;;;;;21.15;63.52;101087.91;4992206;28;20022;-67
2021/08/14 02:46:00;;;;;;;11.90;4.68;;;;;;;21.23;63.58;101108.06;4992181;28;20053;-67
2021/08/14 02:48:26;;;;;;;13.75;4.70;;;;;;;21.30;63.48;101110.72;4992182;28;20022;-67
2021/08/14 02:50:52;;;;;;;10.13;4.40;;;;;;;21.20;63.44;101071.28;4992236;28;20118;-68
2021/08/14 02:53:18;;;;;;;8.18;4.38;;;;;;;21.57;62.94;101103.81;4992187;28;20074;-67
2021/08/14 02:55:43;;;;;;;12.65;4.35;;;;;;;21.85;61.80;101100.34;4992294;28;20034;-66
2021/08/14 02:58:09;;;;;;;9.85;4.40;;;;;;;21.97;60.74;101090.69;4992288;28;20033;-68
2021/08/14 03:00:34;;;;;;;12.10;4.15;;;;;;;22.23;59.90;101096.81;4992404;28;20065;-68
2021/08/14 03:03:00;;;;;;;10.52;4.50;;;;;;;22.33;59.37;101095.03;4992339;28;20105;-68
2021/08/14 03:05:25;;;;;;;8.48;4.07;;;;;;;22.30;59.22;101098.56;4992280;28;20035;-67
2021/08/14 03:07:51;;;;;;;12.40;4.45;;;;;;;22.18;59.28;101101.19;4992352;28;20042;-68
2021/08/14 03:10:16;;;;;;;18.15;5.07;;;;;;;22.20;59.14;101102.94;4992064;28;20022;-67
2021/08/14 03:12:42;;;;;;;16.75;5.05;;;;;;;22.30;58.46;101111.69;4992207;28;20038;-67
2021/08/14 03:15:08;;;;;;;16.63;5.70;;;;;;;22.22;58.64;101109.09;4992349;28;20122;-67
2021/08/14 03:17:34;;;;;;;12.75;4.95;;;;;;;22.13;60.23;101116.97;4992101;28;20030;-67
2021/08/14 03:20:04;;;;;;;14.82;5.20;;;;;;;22.12;59.79;101113.47;4992003;28;20398;-67
2021/08/14 03:22:31;;;;;;;13.60;4.97;;;;;;;22.01;59.93;101109.97;4992044;28;20401;-67
2021/08/14 03:24:57;;;;;;;10.82;4.70;;;;;;;22.07;60.12;101125.75;4991630;28;20046;-67
2021/08/14 03:27:22;;;;;;;13.73;5.10;;;;;;;21.99;59.79;101127.50;4991873;28;20485;-67
2021/08/14 03:29:48;;;;;;;9.50;4.88;;;;;;;21.81;59.98;101121.34;4993381;28;20035;-68
2021/08/14 03:32:13;;;;;;;9.77;5.65;;;;;;;21.87;60.78;101138.00;4995962;28;20378;-70
2021/08/14 03:34:39;;;;;;;10.57;4.70;;;;;;;21.91;60.62;101122.25;4961249;28;20054;-68
2021/08/14 03:37:04;;;;;;;12.88;5.10;;;;;;;21.75;60.70;101097.69;4995963;28;20037;-67
2021/08/14 03:39:30;;;;;;;13.25;4.90;;;;;;;21.79;60.65;101128.38;4995611;28;20058;-69
2021/08/14 03:41:55;;;;;;;11.10;5.15;;;;;;;21.79;60.81;101130.13;4995638;28;20065;-67
2021/08/14 03:44:21;;;;;;;16.55;5.30;;;;;;;21.78;60.67;101126.63;4995501;28;20048;-67
2021/08/14 03:46:46;;;;;;;10.48;4.85;;;;;;;21.69;61.08;101131.84;4995494;28;20448;-72
2021/08/14 03:49:11;;;;;;;18.90;6.25;;;;;;;21.62;61.42;101122.19;4995406;28;20030;-67
2021/08/14 03:51:37;;;;;;;11.13;5.07;;;;;;;21.53;62.33;101137.94;4995327;28;20136;-67
2021/08/14 03:54:02;;;;;;;8.15;4.95;;;;;;;21.46;63.43;101137.91;4995275;28;20084;-71
2021/08/14 03:56:28;;;;;;;13.43;5.85;;;;;;;21.20;64.04;101101.06;4994269;28;20030;-67
2021/08/14 03:58:53;;;;;;;18.67;5.68;;;;;;;21.43;65.02;101140.53;4995182;28;20037;-67
2021/08/14 04:01:19;;;;;;;12.63;5.28;;;;;;;21.47;65.87;101137.03;4995149;28;20038;-71
2021/08/14 04:03:44;;;;;;;16.90;5.45;;;;;;;21.42;64.10;101124.75;4995431;28;20030;-66
2021/08/14 04:06:10;;;;;;;23.08;5.82;;;;;;;21.55;63.66;101142.31;4994992;28;20100;-68
2021/08/14 04:08:35;;;;;;;12.75;6.10;;;;;;;21.70;63.42;101141.50;4995192;28;20022;-67
2021/08/14 04:11:00;;;;;;;12.55;5.63;;;;;;;21.72;63.91;101144.13;4994895;28;20037;-67
2021/08/14 04:13:26;;;;;;;11.43;5.43;;;;;;;21.65;66.34;101125.72;4995161;28;20030;-70
2021/08/14 04:15:51;;;;;;;12.30;5.85;;;;;;;21.53;66.06;101112.50;4994907;28;20117;-68
2021/08/14 04:18:17;;;;;;;18.48;5.05;;;;;;;21.80;65.26;101138.00;4995233;28;20023;-67
2021/08/14 04:20:42;;;;;;;13.65;5.30;;;;;;;21.87;65.17;101143.25;4995121;28;20084;-68
2021/08/14 04:23:08;;;;;;;11.15;5.35;;;;;;;21.89;64.98;101146.78;4994560;28;20022;-67
2021/08/14 04:25:33;;;;;;;15.32;5.85;;;;;;;21.94;65.02;101145.03;4994763;28;20030;-68
2021/08/14 04:28:02;;;;;;;16.63;6.35;;;;;;;21.92;65.59;101152.91;4995039;28;20097;-68
2021/08/14 04:30:27;;;;;;;14.07;5.60;;;;;;;21.77;65.76;101116.97;4994761;28;20110;-68
2021/08/14 04:32:53;;;;;;;18.65;5.78;;;;;;;21.85;65.59;101122.25;4994526;28;20105;-67
2021/08/14 04:35:18;;;;;;;11.38;5.45;;;;;;;21.89;66.00;101137.13;4994546;28;20030;-67
2021/08/14 04:37:44;;;;;;;11.38;5.43;;;;;;;21.77;65.75;101135.38;4994412;28;20030;-67
2021/08/14 04:40:14;;;;;;;10.63;5.40;;;;;;;21.78;66.64;101147.66;4994505;28;20440;-68
2021/08/14 04:42:39;;;;;;;11.00;5.57;;;;;;;21.84;66.49;101143.28;4994246;28;20386;-67
2021/08/14 04:45:06;;;;;;;14.23;5.95;;;;;;;21.89;66.55;101152.03;4994064;28;20053;-68
2021/08/14 04:47:32;;;;;;;11.88;5.30;;;;;;;21.92;66.45;101144.13;4994375;28;20489;-68
2021/08/14 04:49:58;;;;;;;13.27;6.15;;;;;;;21.94;66.30;101151.19;4994442;28;20029;-70
2021/08/14 04:52:23;;;;;;;13.75;5.60;;;;;;;21.87;66.29;101152.03;4994257;28;20047;-66
2021/08/14 04:54:49;;;;;;;10.35;5.43;;;;;;;21.94;66.19;101153.81;4994180;28;20026;-70
2021/08/14 04:57:14;;;;;;;12.48;5.80;;;;;;;22.03;66.08;101150.31;4994251;28;20112;-68
2021/08/14 04:59:39;;;;;;;13.18;5.45;;;;;;;22.19;65.85;101158.19;4994238;28;20029;-68
2021/08/14 05:02:05;;;;;;;16.42;6.30;;;;;;;22.26;65.38;101150.28;4994306;28;20409;-67
2021/08/14 05:04:31;;;;;;;16.48;5.43;;;;;;;22.41;64.86;101152.06;4993932;28;20388;-68
2021/08/14 05:06:56;;;;;;;10.68;5.18;;;;;;;22.40;64.75;101152.94;4994021;28;20463;-67
2021/08/14 05:09:22;;;;;;;10.18;4.97;;;;;;;22.37;64.04;101134.53;4993790;28;20018;-67
2021/08/14 05:11:48;;;;;;;10.80;5.15;;;;;;;22.52;63.49;101148.53;4993686;28;20583;-67
2021/08/14 05:14:14;;;;;;;11.85;4.72;;;;;;;22.41;64.10;101124.88;4993950;28;20037;-69
2021/08/14 05:16:39;;;;;;;13.57;5.38;;;;;;;22.64;63.38;101148.50;4993672;28;20085;-68
2021/08/14 05:19:08;;;;;;;16.00;5.70;;;;;;;22.53;63.77;101130.13;4993493;28;20026;-68
2021/08/14 05:21:35;;;;;;;10.98;5.15;;;;;;;22.66;63.48;101138.00;4993721;28;20077;-72
2021/08/14 05:24:00;;;;;;;11.20;5.18;;;;;;;22.66;63.51;101136.22;4993434;28;20038;-67
2021/08/14 05:26:26;;;;;;;7.90;4.80;;;;;;;22.47;64.58;101140.66;4993510;28;20034;-67
2021/08/14 05:28:52;;;;;;;11.00;5.10;;;;;;;22.57;64.76;101137.13;4993923;28;20026;-66
2021/08/14 05:31:17;;;;;;;9.40;5.22;;;;;;;22.73;64.72;101151.13;4993401;28;20416;-68
2021/08/14 05:33:43;;;;;;;11.32;4.50;;;;;;;22.83;63.86;101137.94;4993526;28;20485;-67
2021/08/14 05:36:09;;;;;;;12.23;5.47;;;;;;;22.75;64.02;101125.69;4993157;28;20053;-68
2021/08/14 05:38:35;;;;;;;9.63;5.00;;;;;;;22.85;63.94;101141.44;4993157;28;20105;-67
2021/08/14 05:41:02;;;;;;;8.93;5.13;;;;;;;22.78;64.32;101149.34;4993788;28;20022;-68
2021/08/14 05:43:27;;;;;;;13.40;5.00;;;;;;;;;;4993250;28;20080;-66
2021/08/14 05:45:53;;;;;;;10.35;5.78;;;;;;;23.00;64.17;101146.63;4993212;28;20026;-71
2021/08/14 05:48:19;;;;;;;11.15;4.78;;;;;;;22.98;63.05;101127.34;4993145;28;20080;-67
2021/08/14 05:50:45;;;;;;;12.73;4.53;;;;;;;23.14;63.05;101133.44;4993009;28;20121;-67
2021/08/14 05:53:11;;;;;;;9.48;4.45;;;;;;;23.30;62.26;101139.50;4992889;28;20054;-68
2021/08/14 05:55:36;;;;;;;10.00;4.50;;;;;;;23.41;61.17;101128.94;4993166;28;20149;-66
2021/08/14 05:58:02;;;;;;;12.85;4.70;;;;;;;23.54;60.09;101127.97;4992962;28;20034;-68
2021/08/14 06:00:27;;;;;;;13.68;5.03;;;;;;;23.54;59.25;101111.28;4992826;28;20026;-68
2021/08/14 06:02:53;;;;;;;10.05;4.55;;;;;;;23.59;59.36;101130.59;5008138;28;20034;-68
2021/08/14 06:05:18;;;;;;;12.07;4.93;;;;;;;23.52;59.35;101099.88;4992714;28;20030;-67
2021/08/14 06:07:47;;;;;;;10.60;4.32;;;;;;;23.80;58.54;101128.69;4992813;28;20109;-68
2021/08/14 06:10:14;;;;;;;14.02;4.97;;;;;;;23.94;58.25;101129.50;4992805;28;20030;-68
2021/08/14 06:12:40;;;;;;;8.65;4.78;;;;;;;24.00;57.76;101126.81;4991786;28;20424;-67
2021/08/14 06:15:06;;;;;;;9.55;5.03;;;;;;;23.94;59.15;101107.50;4992719;28;20046;-67
2021/08/14 06:17:31;;;;;;;10.05;4.88;;;;;;;24.04;57.54;101123.25;4992753;28;20040;-68
2021/08/14 06:19:57;;;;;;;10.60;4.75;;;;;;;24.21;56.23;101128.38;4992880;28;20034;-69
2021/08/14 06:22:22;;;;;;;8.55;4.35;;;;;;;24.26;56.73;101107.19;4992761;28;20036;-68
2021/08/14 06:24:48;;;;;;;10.30;4.78;;;;;;;24.39;56.37;101108.84;4992640;28;20061;-68
2021/08/14 06:27:13;;;;;;;12.70;4.70;;;;;;;24.50;57.26;101123.69;4992781;28;20052;-68
2021/08/14 06:29:39;;;;;;;10.98;4.32;;;;;;;24.34;56.25;101113.28;4992601;28;20037;-68
2021/08/14 06:32:04;;;;;;;8.15;4.68;;;;;;;24.03;57.80;101110.06;4992504;28;20034;-68
2021/08/14 06:34:30;;;;;;;14.07;4.80;;;;;;;23.96;57.79;101105.72;4992436;28;20033;-68
2021/08/14 06:36:55;;;;;;;10.40;5.18;;;;;;;23.99;58.92;101085.50;4992743;28;20073;-70
2021/08/14 06:39:21;;;;;;;12.60;4.50;;;;;;;24.19;57.74;101100.25;4992654;28;20386;-67
2021/08/14 06:41:46;;;;;;;10.00;4.47;;;;;;;24.21;56.73;101116.94;4992452;28;20030;-68
2021/08/14 06:44:12;;;;;;;18.25;5.30;;;;;;;24.17;58.90;101076.50;4992114;28;20054;-67
2021/08/14 06:46:37;;;;;;;11.77;4.10;;;;;;;24.36;56.07;101085.13;4992349;28;20033;-68
2021/08/14 06:49:03;;;;;;;8.32;3.83;;;;;;;24.73;53.98;101104.13;4991979;28;20473;-67
2021/08/14 06:51:30;;;;;;;11.77;4.40;;;;;;;24.86;53.36;101108.34;4992152;28;20555;-67
2021/08/14 06:53:57;;;;;;;8.32;4.40;;;;;;;24.97;53.59;101105.56;4992232;28;20109;-68
2021/08/14 06:56:22;;;;;;;10.07;3.80;;;;;;;25.12;53.47;101113.31;4992832;28;20037;-68
2021/08/14 06:58:47;;;;;;;8.27;4.07;;;;;;;25.05;52.17;101095.81;4992461;28;20023;-67
2021/08/14 07:01:13;;;;;;;5.10;3.72;;;;;;;24.76;52.49;101115.53;4992193;28;20030;-68
2021/08/14 07:03:38;;;;;;;7.10;4.28;;;;;;;24.88;53.28;101114.50;4992444;28;20030;-66
2021/08/14 07:06:04;;;;;;;7.63;3.83;;;;;;;25.12;54.65;101108.03;4995655;28;20393;-68
2021/08/14 07:08:29;;;;;;;7.07;3.83;;;;;;;25.38;52.91;101113.88;4996286;28;20030;-67
2021/08/14 07:10:55;;;;;;;8.85;4.10;;;;;;;25.59;52.13;101100.34;4993986;28;20046;-67
2021/08/14 07:13:20;;;;;;;9.15;4.03;;;;;;;25.62;51.26;101081.78;4996253;28;20027;-68
2021/08/14 07:15:46;;;;;;;9.50;3.90;;;;;;;25.52;50.93;101073.13;4996074;28;20031;-68
2021/08/14 07:18:11;;;;;;;8.68;3.97;;;;;;;25.87;50.22;101109.59;4995819;28;20055;-67
2021/08/14 07:20:37;;;;;;;6.43;3.60;;;;;;;25.98;49.96;101105.00;4995884;28;20472;-68
2021/08/14 07:23:03;;;;;;;5.40;3.47;;;;;;;26.12;47.87;101100.38;4995833;28;20026;-68
2021/08/14 07:25:29;;;;;;;7.60;3.97;;;;;;;26.15;46.81;101097.66;4995855;28;20034;-68
2021/08/14 07:27:55;;;;;;;6.30;3.85;;;;;;;26.10;47.68;101101.31;4995775;28;20401;-68
2021/08/14 07:30:20;;;;;;;7.72;3.88;;;;;;;26.03;47.48;101104.94;4995973;28;20027;-68
2021/08/14 07:32:46;;;;;;;6.10;3.33;;;;;;;25.98;46.22;101108.53;4995725;28;20037;-66
2021/08/14 07:35:11;;;;;;;6.57;3.90;;;;;;;26.11;49.49;101106.56;4995726;28;20712;-72
2021/08/14 07:37:51;;;;;;;8.02;3.85;;;;;;;26.41;47.35;101101.63;4995706;28;20022;-66
2021/08/14 07:40:23;;;;;;;5.47;3.35;;;;;;;26.36;43.25;101078.78;4995722;28;20038;-72
2021/08/14 07:42:53;;;;;;;6.32;3.80;;;;;;;26.46;44.69;101083.00;4995508;28;20027;-67
2021/08/14 07:45:19;;;;;;;4.97;3.22;;;;;;;26.67;45.31;101102.00;4995314;28;20026;-66
2021/08/14 07:47:48;;;;;;;5.25;3.50;;;;;;;26.87;41.86;101104.31;4995477;28;20532;-68
2021/08/14 07:50:19;;;;;;;8.02;3.38;;;;;;;26.87;38.59;101102.50;4995820;28;20503;-68
2021/08/14 07:52:45;;;;;;;9.07;3.33;;;;;;;26.73;39.16;101070.09;4995296;28;20089;-68
2021/08/14 07:55:11;;;;;;;6.70;3.47;;;;;;;27.12;37.88;101094.03;4995380;28;20058;-68
2021/08/14 07:57:39;;;;;;;5.40;3.42;;;;;;;27.27;39.80;101100.78;4995351;28;20509;-68
2021/08/14 08:00:05;;;;;;;9.70;3.70;;;;;;;27.44;38.79;101095.09;4995051;28;20037;-68
2021/08/14 08:02:30;;;;;;;8.23;3.60;;;;;;;27.63;37.69;101094.66;4995395;28;20093;-68
2021/08/14 08:04:56;;;;;;;6.78;3.67;;;;;;;27.75;37.40;101092.59;4995425;28;20030;-67
2021/08/14 08:07:21;;;;;;;5.22;3.33;;;;;;;27.82;37.42;101095.09;4994989;28;20031;-68
2021/08/14 08:09:47;;;;;;;8.48;4.30;;;;;;;27.80;39.08;101087.16;4995292;28;20034;-68
2021/08/14 08:12:12;;;;;;;6.88;3.42;;;;;;;27.80;36.84;101091.59;4995257;28;20089;-74
2021/08/14 08:14:38;;;;;;;9.23;3.67;;;;;;;27.99;37.25;101086.69;4993518;28;20100;-68
2021/08/14 08:17:03;;;;;;;7.85;3.70;;;;;;;28.07;37.93;101080.28;4994761;28;20374;-68
2021/08/14 08:19:29;;;;;;;6.78;3.63;;;;;;;28.21;35.42;101087.91;4960800;28;20042;-68
2021/08/14 08:21:55;;;;;;;7.22;3.58;;;;;;;28.36;34.13;101085.75;4994998;28;20049;-67
2021/08/14 08:24:20;;;;;;;14.50;3.60;;;;;;;28.31;34.05;101071.72;4994810;28;20031;-68
2021/08/14 08:26:46;;;;;;;13.95;3.90;;;;;;;28.50;35.22;101090.66;4994792;28;20397;-68
2021/08/14 08:29:11;;;;;;;9.50;3.58;;;;;;;28.50;35.10;101078.28;4994439;28;20401;-67
2021/08/14 08:31:36;;;;;;;6.88;3.22;;;;;;;28.49;35.28;101091.59;4994858;28;20477;-68
2021/08/14 08:34:02;;;;;;;8.32;4.40;;;;;;;28.49;37.10;101059.72;4994730;28;20037;-68
2021/08/14 08:36:27;;;;;;;8.75;5.10;;;;;;;28.44;36.58;101043.03;4994530;28;20033;-68
2021/08/14 08:38:53;;;;;;;27.30;5.38;;;;;;;28.62;38.04;101073.50;4994823;28;20030;-68
2021/08/14 08:41:19;;;;;;;24.30;5.20;;;;;;;28.70;36.25;101071.56;4994358;28;20621;-68
2021/08/14 08:43:45;;;;;;;18.13;5.53;;;;;;;28.86;37.09;101071.94;4992244;28;20428;-67
2021/08/14 08:46:11;;;;;;;18.63;4.55;;;;;;;28.96;34.86;101069.88;4994296;28;20026;-68
2021/08/14 08:48:42;;;;;;;12.85;4.53;;;;;;;29.01;35.74;101059.97;4994443;28;20129;-68
2021/08/14 08:51:09;;;;;;;10.07;3.63;;;;;;;28.97;34.61;101031.75;4992937;28;20481;-68
2021/08/14 08:53:34;;;;;;;15.20;4.50;;;;;;;29.18;34.23;101059.47;4994271;28;20511;-68
2021/08/14 08:56:00;;;;;;;11.18;4.55;;;;;;;29.28;35.32;101050.25;4992258;28;20035;-68
2021/08/14 08:58:25;;;;;;;8.02;4.07;;;;;;;29.41;34.04;101048.13;4993978;28;20038;-68
2021/08/14 09:00:50;;;;;;;9.32;3.53;;;;;;;29.40;35.12;101050.81;4993009;28;20034;-67
2021/08/14 09:03:16;;;;;;;10.95;3.47;;;;;;;29.37;34.85;101054.44;4993825;28;20034;-68
2021/08/14 09:05:47;;;;;;;15.75;4.47;;;;;;;29.40;34.18;101043.72;4994022;28;20033;-68
2021/08/14 09:08:13;;;;;;;7.65;3.58;;;;;;;29.15;33.94;101047.13;4993774;28;20492;-68
2021/08/14 09:10:39;;;;;;;11.00;4.35;;;;;;;29.29;33.70;101043.22;4993635;28;20037;-67
2021/08/14 09:13:12;;;;;;;13.13;4.20;;;;;;;29.51;35.39;101044.25;4993615;28;20027;-68
2021/08/14 09:15:38;;;;;;;10.18;3.67;;;;;;;29.63;33.53;101034.97;4991838;28;20050;-68
2021/08/14 09:18:06;;;;;;;8.60;3.72;;;;;;;29.68;34.66;101032.16;4993921;28;20030;-68
2021/08/14 09:20:34;;;;;;;9.02;3.58;;;;;;;29.87;33.50;101029.75;4993645;28;20081;-68
2021/08/14 09:23:04;;;;;;;7.50;3.45;;;;;;;29.88;33.09;101027.94;4993585;28;20085;-68
2021/08/14 09:25:41;;;;;;;7.60;3.55;;;;;;;29.87;31.76;101000.47;4993398;28;20080;-72
2021/08/14 09:28:08;;;;;;;6.68;3.42;;;;;;;29.67;32.05;101020.66;4992880;28;20034;-68
2021/08/14 09:30:54;;;;;;;12.73;4.53;;;;;;;30.07;33.40;101021.06;4993603;28;20117;-68
2021/08/14 09:33:27;;;;;;;15.93;5.40;;;;;;;30.18;33.57;101000.25;4993458;28;20030;-68
2021/08/14 09:36:01;;;;;;;10.63;3.80;;;;;;;30.45;30.58;101008.13;4993312;28;20034;-68
2021/08/14 09:38:39;;;;;;;10.00;3.30;;;;;;;30.66;29.88;101008.28;4993580;28;20043;-68
2021/08/14 09:41:11;;;;;;;9.57;3.80;;;;;;;30.72;30.26;101005.38;4993606;28;20399;-68
2021/08/14 09:43:37;;;;;;;11.73;4.15;;;;;;;30.79;29.52;101004.22;4993220;28;20034;-67
2021/08/14 09:46:03;;;;;;;6.07;3.50;;;;;;;30.85;29.52;100986.22;4992991;28;20085;-71
2021/08/14 09:48:29;;;;;;;5.72;3.50;;;;;;;31.07;29.47;100995.13;4974900;28;20054;-68
2021/08/14 09:50:54;;;;;;;10.70;3.88;;;;;;;31.22;27.30;100992.78;4993365;28;20022;-68
2021/08/14 09:53:22;;;;;;;12.52;4.15;;;;;;;31.06;28.45;100982.69;4993381;28;20053;-68
2021/08/14 09:56:07;;;;;;;10.95;4.35;;;;;;;30.52;29.98;100944.88;4993025;28;20046;-68
2021/08/14 09:58:33;;;;;;;6.53;3.38;;;;;;;30.78;29.44;100989.13;4993093;28;20452;-72
2021/08/14 10:01:00;;;;;;;4.47;3.40;;;;;;;30.98;28.64;100984.81;4993259;28;20026;-68
2021/08/14 10:03:28;;;;;;;8.43;3.17;;;;;;;31.06;27.96;100980.03;4993138;28;20041;-68
2021/08/14 10:05:54;;;;;;;5.00;3.63;;;;;;;31.12;28.87;100977.13;4993062;28;20058;-68
2021/08/14 10:08:20;;;;;;;14.68;4.20;;;;;;;31.46;29.25;100975.72;4993103;28;20037;-68
2021/08/14 10:10:46;;;;;;;9.88;3.78;;;;;;;31.76;28.82;100987.84;4992766;28;20030;-68
2021/08/14 10:13:12;;;;;;;9.18;3.78;;;;;;;31.98;27.05;100976.19;4992785;28;20035;-68
2021/08/14 10:15:38;;;;;;;7.70;3.50;;;;;;;32.08;27.27;100973.03;4992774;28;20034;-68
2021/08/14 10:18:05;;;;;;;6.68;3.55;;;;;;;31.93;29.35;100968.41;4992604;28;20036;-67
2021/08/14 10:20:31;;;;;;;7.15;3.22;;;;;;;31.74;27.57;100938.97;4992393;28;20038;-68
2021/08/14 10:23:05;;;;;;;6.63;3.60;;;;;;;31.94;27.76;100938.09;4992777;28;20042;-68
2021/08/14 10:25:34;;;;;;;6.57;3.53;;;;;;;32.17;27.21;100925.50;4992498;28;20424;-68
2021/08/14 10:28:03;;;;;;;7.03;3.60;;;;;;;32.42;26.94;100950.13;4958730;28;20038;-68
2021/08/14 10:30:52;;;;;;;7.93;3.78;;;;;;;32.68;26.53;100936.47;4974391;28;20045;-68
2021/08/14 10:33:27;;;;;;;;;;;;;;;32.74;26.78;100944.22;4991828;28;20456;-67
2021/08/14 10:35:57;;;;;;;7.28;3.63;;;;;;;32.92;26.96;100937.09;4992328;28;19968;-68
2021/08/14 10:38:40;;;;;;;6.88;3.83;;;;;;;32.90;26.11;100918.47;4992246;28;20066;-68
2021/08/14 10:41:07;;;;;;;7.20;3.88;;;;;;;32.61;27.30;100901.16;4992319;28;20058;-67
2021/08/14 10:43:50;;;;;;;10.93;4.30;;;;;;;32.65;28.00;100916.13;4992422;28;20108;-68
2021/08/14 10:46:31;;;;;;;9.85;4.22;;;;;;;32.94;26.28;100923.66;4992227;28;20041;-68
2021/08/14 10:49:00;;;;;;;6.93;3.42;;;;;;;32.95;25.84;100926.28;4992603;28;20088;-68
2021/08/14 10:51:47;;;;;;;8.10;4.07;;;;;;;32.82;25.91;100917.13;4992516;28;20061;-68
2021/08/14 10:54:14;;;;;;;7.53;4.10;;;;;;;32.93;26.03;100898.72;4992214;28;20030;-68
2021/08/14 10:56:50;;;;;;;16.10;4.60;;;;;;;33.19;27.85;100924.16;4992447;28;20409;-68
2021/08/14 10:59:35;;;;;;;11.20;4.10;;;;;;;33.51;27.13;100923.44;4992174;28;20500;-68
2021/08/14 11:02:20;;;;;;;7.47;3.47;;;;;;;33.65;25.30;100920.06;4992655;28;20042;-72
2021/08/14 11:04:49;;;;;;;5.00;3.22;;;;;;;33.56;26.84;100924.09;4912909;29;20551;-68
2021/08/14 11:07:19;;;;;;;12.23;3.93;;;;;;;33.04;27.40;100919.59;4913064;29;20051;-70
2021/08/14 11:09:45;;;;;;;8.57;3.45;;;;;;;32.89;26.74;100911.38;4913094;29;20278;-68
2021/08/14 11:12:29;;;;;;;5.43;3.58;;;;;;;32.04;26.22;100882.44;4913449;29;20036;-68
2021/08/14 11:15:12;;;;;;;6.70;3.70;;;;;;;32.12;27.34;100896.31;4913180;29;20064;-67
2021/08/14 11:17:37;;;;;;;6.70;3.60;;;;;;;32.17;26.65;100891.63;4913044;29;20072;-67
2021/08/14 11:20:26;;;;;;;9.43;3.70;;;;;;;32.43;26.88;100897.56;4913131;29;20503;-67